sensor_id;sensor_type;location;lat;lon;timestamp;pressure;altitude;pressure_sealevel;temperature;humidity
20009;BME280;10165;42.662;23.260;2023-04-24T00:01:01;93869.84;;;15.21;48.68
20009;BME280;10165;42.662;23.260;2023-04-24T00:03:30;93862.88;;;15.13;48.99
20009;BME280;10165;42.662;23.260;2023-04-24T00:05:57;93865.19;;;15.14;49.00
20009;BME280;10165;42.662;23.260;2023-04-24T00:08:25;93861.34;;;15.19;48.90
20009;BME280;10165;42.662;23.260;2023-04-24T00:10:52;93857.53;;;15.20;48.73
20009;BME280;10165;42.662;23.260;2023-04-24T00:13:19;93854.84;;;15.20;48.27
20009;BME280;10165;42.662;23.260;2023-04-24T00:15:46;93861.34;;;15.19;48.14
20009;BME280;10165;42.662;23.260;2023-04-24T00:18:12;93857.41;;;14.95;48.79
20009;BME280;10165;42.662;23.260;2023-04-24T00:20:39;93861.84;;;14.59;49.95
20009;BME280;10165;42.662;23.260;2023-04-24T00:23:06;93857.91;;;14.46;50.10
20009;BME280;10165;42.662;23.260;2023-04-24T00:25:33;93859.16;;;14.12;51.03
20009;BME280;10165;42.662;23.260;2023-04-24T00:28:00;93858.97;;;14.34;50.86
20009;BME280;10165;42.662;23.260;2023-04-24T00:30:27;93856.66;;;14.33;50.70
20009;BME280;10165;42.662;23.260;2023-04-24T00:32:54;93856.81;;;14.07;52.10
20009;BME280;10165;42.662;23.260;2023-04-24T00:35:20;93860.53;;;13.92;52.68
20009;BME280;10165;42.662;23.260;2023-04-24T00:37:47;93860.84;;;13.83;52.75
20009;BME280;10165;42.662;23.260;2023-04-24T00:40:14;93859.03;;;13.94;52.74
20009;BME280;10165;42.662;23.260;2023-04-24T00:42:41;93853.56;;;14.31;52.03
20009;BME280;10165;42.662;23.260;2023-04-24T00:45:08;93851.44;;;14.58;50.73
20009;BME280;10165;42.662;23.260;2023-04-24T00:47:35;93854.69;;;14.92;49.80
20009;BME280;10165;42.662;23.260;2023-04-24T00:50:06;93853.59;;;15.03;49.09
20009;BME280;10165;42.662;23.260;2023-04-24T00:52:33;93864.09;;;14.54;49.98
20009;BME280;10165;42.662;23.260;2023-04-24T00:55:00;93856.81;;;14.58;49.65
20009;BME280;10165;42.662;23.260;2023-04-24T00:57:27;93852.66;;;14.64;49.74
20009;BME280;10165;42.662;23.260;2023-04-24T00:59:54;93850.44;;;14.83;49.27
20009;BME280;10165;42.662;23.260;2023-04-24T01:02:21;93840.03;;;14.71;50.18
20009;BME280;10165;42.662;23.260;2023-04-24T01:04:50;93833.91;;;14.81;51.35
20009;BME280;10165;42.662;23.260;2023-04-24T01:07:20;93832.38;;;14.84;51.60
20009;BME280;10165;42.662;23.260;2023-04-24T01:09:48;93820.06;;;14.76;53.04
20009;BME280;10165;42.662;23.260;2023-04-24T01:12:18;93827.75;;;14.77;54.21
20009;BME280;10165;42.662;23.260;2023-04-24T01:14:45;93816.97;;;14.74;54.93
20009;BME280;10165;42.662;23.260;2023-04-24T01:17:12;93806.50;;;14.51;56.39
20009;BME280;10165;42.662;23.260;2023-04-24T01:19:39;93809.16;;;14.44;57.69
20009;BME280;10165;42.662;23.260;2023-04-24T01:22:11;93814.31;;;14.16;58.49
20009;BME280;10165;42.662;23.260;2023-04-24T01:24:38;93818.25;;;14.29;58.40
20009;BME280;10165;42.662;23.260;2023-04-24T01:27:05;93811.44;;;14.46;57.48
20009;BME280;10165;42.662;23.260;2023-04-24T01:29:32;93821.28;;;14.27;57.92
20009;BME280;10165;42.662;23.260;2023-04-24T01:32:00;93820.94;;;13.81;59.96
20009;BME280;10165;42.662;23.260;2023-04-24T01:34:29;93822.72;;;14.14;59.06
20009;BME280;10165;42.662;23.260;2023-04-24T01:36:56;93824.06;;;14.38;58.25
20009;BME280;10165;42.662;23.260;2023-04-24T01:39:23;93812.00;;;13.67;59.10
20009;BME280;10165;42.662;23.260;2023-04-24T01:41:55;93804.53;;;13.46;57.00
20009;BME280;10165;42.662;23.260;2023-04-24T01:44:22;93819.09;;;13.89;57.41
20009;BME280;10165;42.662;23.260;2023-04-24T01:46:49;93808.06;;;14.01;57.45
20009;BME280;10165;42.662;23.260;2023-04-24T01:49:17;93811.72;;;13.75;58.19
20009;BME280;10165;42.662;23.260;2023-04-24T01:51:44;93818.19;;;13.71;56.37
20009;BME280;10165;42.662;23.260;2023-04-24T01:54:11;93812.63;;;13.94;56.60
20009;BME280;10165;42.662;23.260;2023-04-24T01:56:40;93808.94;;;14.16;55.64
20009;BME280;10165;42.662;23.260;2023-04-24T01:59:12;93815.94;;;14.31;55.13
20009;BME280;10165;42.662;23.260;2023-04-24T02:01:39;93820.97;;;13.41;57.67
20009;BME280;10165;42.662;23.260;2023-04-24T02:04:06;93816.84;;;13.14;58.76
20009;BME280;10165;42.662;23.260;2023-04-24T02:06:34;93813.78;;;13.15;58.00
20009;BME280;10165;42.662;23.260;2023-04-24T02:09:02;93815.22;;;13.43;57.82
20009;BME280;10165;42.662;23.260;2023-04-24T02:11:29;93809.50;;;13.44;58.04
20009;BME280;10165;42.662;23.260;2023-04-24T02:13:56;93809.53;;;13.48;57.74
20009;BME280;10165;42.662;23.260;2023-04-24T02:16:23;93816.13;;;13.57;57.49
20009;BME280;10165;42.662;23.260;2023-04-24T02:18:50;93811.47;;;13.51;57.46
20009;BME280;10165;42.662;23.260;2023-04-24T02:21:17;93808.88;;;13.21;58.03
20009;BME280;10165;42.662;23.260;2023-04-24T02:23:43;93806.34;;;13.02;58.93
20009;BME280;10165;42.662;23.260;2023-04-24T02:26:10;93800.00;;;13.13;58.77
20009;BME280;10165;42.662;23.260;2023-04-24T02:28:37;93795.16;;;13.26;58.25
20009;BME280;10165;42.662;23.260;2023-04-24T02:31:04;93791.00;;;12.99;59.59
20009;BME280;10165;42.662;23.260;2023-04-24T02:33:31;93787.44;;;13.21;59.32
20009;BME280;10165;42.662;23.260;2023-04-24T02:35:58;93789.72;;;13.22;59.22
20009;BME280;10165;42.662;23.260;2023-04-24T02:38:25;93780.34;;;13.06;59.47
20009;BME280;10165;42.662;23.260;2023-04-24T02:40:52;93781.28;;;13.20;59.08
20009;BME280;10165;42.662;23.260;2023-04-24T02:43:19;93780.09;;;12.84;60.70
20009;BME280;10165;42.662;23.260;2023-04-24T02:45:46;93781.97;;;13.10;60.08
20009;BME280;10165;42.662;23.260;2023-04-24T02:48:12;93775.44;;;13.48;58.98
20009;BME280;10165;42.662;23.260;2023-04-24T02:50:39;93772.22;;;13.32;58.96
20009;BME280;10165;42.662;23.260;2023-04-24T02:53:06;93771.94;;;13.44;58.89
20009;BME280;10165;42.662;23.260;2023-04-24T02:55:32;93770.03;;;13.45;58.89
20009;BME280;10165;42.662;23.260;2023-04-24T02:57:59;93766.63;;;13.51;58.44
20009;BME280;10165;42.662;23.260;2023-04-24T03:00:26;93775.47;;;13.15;59.90
20009;BME280;10165;42.662;23.260;2023-04-24T03:02:52;93774.88;;;12.95;59.88
20009;BME280;10165;42.662;23.260;2023-04-24T03:05:19;93782.56;;;12.33;61.22
20009;BME280;10165;42.662;23.260;2023-04-24T03:07:46;93790.88;;;12.28;61.53
20009;BME280;10165;42.662;23.260;2023-04-24T03:10:13;93790.41;;;12.23;62.57
20009;BME280;10165;42.662;23.260;2023-04-24T03:12:39;93791.31;;;12.60;59.76
20009;BME280;10165;42.662;23.260;2023-04-24T03:15:07;93789.59;;;12.45;59.66
20009;BME280;10165;42.662;23.260;2023-04-24T03:17:33;93791.34;;;12.64;58.70
20009;BME280;10165;42.662;23.260;2023-04-24T03:20:01;93791.34;;;12.97;58.33
20009;BME280;10165;42.662;23.260;2023-04-24T03:22:28;93798.25;;;12.65;58.09
20009;BME280;10165;42.662;23.260;2023-04-24T03:24:55;93798.94;;;12.58;59.89
20009;BME280;10165;42.662;23.260;2023-04-24T03:27:23;93789.97;;;12.77;58.97
20009;BME280;10165;42.662;23.260;2023-04-24T03:29:49;93791.59;;;12.85;58.38
20009;BME280;10165;42.662;23.260;2023-04-24T03:32:21;93797.66;;;12.78;57.79
20009;BME280;10165;42.662;23.260;2023-04-24T03:34:49;93791.78;;;12.99;57.17
20009;BME280;10165;42.662;23.260;2023-04-24T03:37:17;93782.03;;;13.17;56.90
20009;BME280;10165;42.662;23.260;2023-04-24T03:39:43;93791.25;;;12.86;57.26
20009;BME280;10165;42.662;23.260;2023-04-24T03:42:10;93784.75;;;13.21;56.75
20009;BME280;10165;42.662;23.260;2023-04-24T03:44:37;93783.69;;;13.29;56.63
20009;BME280;10165;42.662;23.260;2023-04-24T03:47:04;93785.31;;;13.07;57.65
20009;BME280;10165;42.662;23.260;2023-04-24T03:49:30;93785.81;;;12.79;59.19
20009;BME280;10165;42.662;23.260;2023-04-24T03:51:57;93786.44;;;13.03;57.78
20009;BME280;10165;42.662;23.260;2023-04-24T03:54:24;93784.78;;;13.24;57.01
20009;BME280;10165;42.662;23.260;2023-04-24T03:56:50;93785.59;;;12.95;56.88
20009;BME280;10165;42.662;23.260;2023-04-24T03:59:17;93790.69;;;12.74;57.54
20009;BME280;10165;42.662;23.260;2023-04-24T04:01:44;93780.34;;;13.06;56.80
20009;BME280;10165;42.662;23.260;2023-04-24T04:04:11;93792.50;;;13.29;57.02
20009;BME280;10165;42.662;23.260;2023-04-24T04:06:38;93793.31;;;12.67;58.99
20009;BME280;10165;42.662;23.260;2023-04-24T04:09:05;93790.19;;;12.94;59.51
20009;BME280;10165;42.662;23.260;2023-04-24T04:11:33;93791.91;;;13.10;58.00
20009;BME280;10165;42.662;23.260;2023-04-24T04:14:00;93783.38;;;13.04;59.19
20009;BME280;10165;42.662;23.260;2023-04-24T04:16:26;93781.22;;;13.13;58.22
20009;BME280;10165;42.662;23.260;2023-04-24T04:18:53;93781.38;;;13.31;57.67
20009;BME280;10165;42.662;23.260;2023-04-24T04:21:20;93785.03;;;13.12;59.46
20009;BME280;10165;42.662;23.260;2023-04-24T04:23:46;93789.66;;;13.15;58.24
20009;BME280;10165;42.662;23.260;2023-04-24T04:26:14;93795.53;;;12.94;59.64
20009;BME280;10165;42.662;23.260;2023-04-24T04:28:41;93790.88;;;13.21;60.03
20009;BME280;10165;42.662;23.260;2023-04-24T04:31:08;93792.63;;;13.07;60.66
20009;BME280;10165;42.662;23.260;2023-04-24T04:33:34;93797.25;;;12.46;62.44
20009;BME280;10165;42.662;23.260;2023-04-24T04:36:02;93805.00;;;12.85;61.39
20009;BME280;10165;42.662;23.260;2023-04-24T04:38:30;93809.03;;;12.68;60.98
20009;BME280;10165;42.662;23.260;2023-04-24T04:40:58;93816.34;;;13.05;60.43
20009;BME280;10165;42.662;23.260;2023-04-24T04:43:25;93817.81;;;12.99;59.70
20009;BME280;10165;42.662;23.260;2023-04-24T04:45:52;93815.94;;;13.36;58.07
20009;BME280;10165;42.662;23.260;2023-04-24T04:48:18;93825.59;;;13.44;57.06
20009;BME280;10165;42.662;23.260;2023-04-24T04:50:45;93825.13;;;13.35;57.62
20009;BME280;10165;42.662;23.260;2023-04-24T04:53:12;93829.34;;;13.36;57.57
20009;BME280;10165;42.662;23.260;2023-04-24T04:55:38;93823.63;;;13.08;58.61
20009;BME280;10165;42.662;23.260;2023-04-24T04:58:05;93820.81;;;12.93;59.40
20009;BME280;10165;42.662;23.260;2023-04-24T05:00:32;93814.88;;;13.44;58.29
20009;BME280;10165;42.662;23.260;2023-04-24T05:03:02;93824.88;;;13.51;56.76
20009;BME280;10165;42.662;23.260;2023-04-24T05:05:46;93828.22;;;13.37;56.82
20009;BME280;10165;42.662;23.260;2023-04-24T05:08:12;93830.16;;;13.40;55.39
20009;BME280;10165;42.662;23.260;2023-04-24T05:10:52;93828.00;;;13.19;55.66
20009;BME280;10165;42.662;23.260;2023-04-24T05:13:18;93822.94;;;12.81;55.96
20009;BME280;10165;42.662;23.260;2023-04-24T05:15:57;93825.53;;;13.07;56.30
20009;BME280;10165;42.662;23.260;2023-04-24T05:18:24;93825.69;;;13.14;55.37
20009;BME280;10165;42.662;23.260;2023-04-24T05:20:51;93829.91;;;13.19;55.20
20009;BME280;10165;42.662;23.260;2023-04-24T05:23:17;93820.63;;;13.46;54.58
20009;BME280;10165;42.662;23.260;2023-04-24T05:25:44;93825.97;;;13.86;54.65
20009;BME280;10165;42.662;23.260;2023-04-24T05:28:12;93825.53;;;13.81;53.64
20009;BME280;10165;42.662;23.260;2023-04-24T05:30:39;93830.31;;;13.58;53.94
20009;BME280;10165;42.662;23.260;2023-04-24T05:33:06;93825.44;;;13.70;54.05
20009;BME280;10165;42.662;23.260;2023-04-24T05:35:32;93826.25;;;13.34;54.74
20009;BME280;10165;42.662;23.260;2023-04-24T05:37:59;93819.66;;;12.94;55.86
20009;BME280;10165;42.662;23.260;2023-04-24T05:40:26;93831.38;;;13.50;55.24
20009;BME280;10165;42.662;23.260;2023-04-24T05:42:52;93829.06;;;13.88;55.67
20009;BME280;10165;42.662;23.260;2023-04-24T05:45:19;93826.09;;;12.86;55.52
20009;BME280;10165;42.662;23.260;2023-04-24T05:47:46;93828.84;;;13.27;55.12
20009;BME280;10165;42.662;23.260;2023-04-24T05:50:13;93820.88;;;13.34;54.46
20009;BME280;10165;42.662;23.260;2023-04-24T05:52:40;93827.16;;;13.93;52.20
20009;BME280;10165;42.662;23.260;2023-04-24T05:55:07;93822.66;;;13.56;51.90
20009;BME280;10165;42.662;23.260;2023-04-24T05:57:34;93819.44;;;13.87;51.02
20009;BME280;10165;42.662;23.260;2023-04-24T06:00:01;93824.28;;;14.15;50.32
20009;BME280;10165;42.662;23.260;2023-04-24T06:02:27;93821.78;;;13.89;50.20
20009;BME280;10165;42.662;23.260;2023-04-24T06:04:59;93827.44;;;14.28;50.12
20009;BME280;10165;42.662;23.260;2023-04-24T06:07:26;93825.53;;;14.28;50.27
20009;BME280;10165;42.662;23.260;2023-04-24T06:09:53;93821.81;;;12.82;53.57
20009;BME280;10165;42.662;23.260;2023-04-24T06:12:19;93828.06;;;13.63;51.48
20009;BME280;10165;42.662;23.260;2023-04-24T06:14:46;93825.56;;;13.84;50.59
20009;BME280;10165;42.662;23.260;2023-04-24T06:17:13;93827.13;;;13.85;51.27
20009;BME280;10165;42.662;23.260;2023-04-24T06:19:39;93817.34;;;14.14;50.49
20009;BME280;10165;42.662;23.260;2023-04-24T06:22:07;93813.88;;;14.72;49.66
20009;BME280;10165;42.662;23.260;2023-04-24T06:24:36;93821.00;;;15.19;48.38
20009;BME280;10165;42.662;23.260;2023-04-24T06:27:03;93820.00;;;15.69;47.39
20009;BME280;10165;42.662;23.260;2023-04-24T06:29:30;93822.22;;;15.46;46.69
20009;BME280;10165;42.662;23.260;2023-04-24T06:31:56;93823.34;;;15.24;47.58
20009;BME280;10165;42.662;23.260;2023-04-24T06:34:23;93822.59;;;15.41;47.04
20009;BME280;10165;42.662;23.260;2023-04-24T06:36:50;93828.75;;;15.38;47.24
20009;BME280;10165;42.662;23.260;2023-04-24T06:39:17;93826.19;;;14.73;48.01
20009;BME280;10165;42.662;23.260;2023-04-24T06:41:43;93834.25;;;14.69;48.72
20009;BME280;10165;42.662;23.260;2023-04-24T06:44:10;93832.53;;;15.23;47.38
20009;BME280;10165;42.662;23.260;2023-04-24T06:46:39;93835.81;;;14.77;48.45
20009;BME280;10165;42.662;23.260;2023-04-24T06:49:07;93835.56;;;15.11;47.80
20009;BME280;10165;42.662;23.260;2023-04-24T06:51:33;93837.88;;;15.09;48.16
20009;BME280;10165;42.662;23.260;2023-04-24T06:54:00;93826.03;;;15.24;46.69
20009;BME280;10165;42.662;23.260;2023-04-24T06:56:28;93822.66;;;15.59;47.12
20009;BME280;10165;42.662;23.260;2023-04-24T06:58:55;93821.94;;;15.94;46.55
20009;BME280;10165;42.662;23.260;2023-04-24T07:01:22;93815.78;;;15.90;45.71
20009;BME280;10165;42.662;23.260;2023-04-24T07:03:49;93809.09;;;15.23;47.61
20009;BME280;10165;42.662;23.260;2023-04-24T07:06:16;93812.13;;;15.08;48.29
20009;BME280;10165;42.662;23.260;2023-04-24T07:08:45;93809.44;;;15.04;47.95
20009;BME280;10165;42.662;23.260;2023-04-24T07:11:12;93812.09;;;14.97;47.91
20009;BME280;10165;42.662;23.260;2023-04-24T07:13:39;93813.41;;;15.53;46.73
20009;BME280;10165;42.662;23.260;2023-04-24T07:16:08;93806.53;;;15.76;47.08
20009;BME280;10165;42.662;23.260;2023-04-24T07:18:35;93806.53;;;15.76;45.86
20009;BME280;10165;42.662;23.260;2023-04-24T07:21:03;93801.53;;;15.86;45.98
20009;BME280;10165;42.662;23.260;2023-04-24T07:23:29;93800.38;;;16.36;44.83
20009;BME280;10165;42.662;23.260;2023-04-24T07:25:57;93796.06;;;16.53;44.89
20009;BME280;10165;42.662;23.260;2023-04-24T07:28:24;93800.38;;;15.62;46.36
20009;BME280;10165;42.662;23.260;2023-04-24T07:30:51;93801.53;;;15.75;46.05
20009;BME280;10165;42.662;23.260;2023-04-24T07:33:20;93786.84;;;16.50;44.44
20009;BME280;10165;42.662;23.260;2023-04-24T07:35:47;93794.06;;;15.12;46.96
20009;BME280;10165;42.662;23.260;2023-04-24T07:38:14;93795.59;;;15.06;48.73
20009;BME280;10165;42.662;23.260;2023-04-24T07:40:41;93794.84;;;15.09;47.38
20009;BME280;10165;42.662;23.260;2023-04-24T07:43:08;93794.22;;;16.04;46.25
20009;BME280;10165;42.662;23.260;2023-04-24T07:45:35;93788.06;;;15.61;46.73
20009;BME280;10165;42.662;23.260;2023-04-24T07:48:04;93791.13;;;15.52;47.23
20009;BME280;10165;42.662;23.260;2023-04-24T07:50:31;93790.00;;;16.13;44.88
20009;BME280;10165;42.662;23.260;2023-04-24T07:52:58;93779.56;;;16.26;45.63
20009;BME280;10165;42.662;23.260;2023-04-24T07:55:25;93773.19;;;17.03;43.74
20009;BME280;10165;42.662;23.260;2023-04-24T07:57:53;93780.34;;;16.19;44.63
20009;BME280;10165;42.662;23.260;2023-04-24T08:00:20;93774.06;;;16.76;43.85
20009;BME280;10165;42.662;23.260;2023-04-24T08:02:47;93768.56;;;17.07;43.37
20009;BME280;10165;42.662;23.260;2023-04-24T08:05:14;93776.78;;;16.76;43.90
20009;BME280;10165;42.662;23.260;2023-04-24T08:07:41;93773.41;;;16.40;44.27
20009;BME280;10165;42.662;23.260;2023-04-24T08:10:12;93769.91;;;16.43;44.64
20009;BME280;10165;42.662;23.260;2023-04-24T08:12:39;93761.56;;;17.13;44.30
20009;BME280;10165;42.662;23.260;2023-04-24T08:15:07;93771.09;;;16.27;44.26
20009;BME280;10165;42.662;23.260;2023-04-24T08:17:34;93769.53;;;16.51;44.49
20009;BME280;10165;42.662;23.260;2023-04-24T08:20:03;93767.63;;;17.35;43.15
20009;BME280;10165;42.662;23.260;2023-04-24T08:22:31;93765.25;;;17.44;42.69
20009;BME280;10165;42.662;23.260;2023-04-24T08:24:59;93768.69;;;17.52;42.23
20009;BME280;10165;42.662;23.260;2023-04-24T08:27:26;93765.03;;;17.80;41.97
20009;BME280;10165;42.662;23.260;2023-04-24T08:29:53;93756.75;;;17.49;41.70
20009;BME280;10165;42.662;23.260;2023-04-24T08:32:20;93763.13;;;17.14;42.94
20009;BME280;10165;42.662;23.260;2023-04-24T08:34:47;93759.13;;;17.37;42.79
20009;BME280;10165;42.662;23.260;2023-04-24T08:37:16;93748.56;;;17.01;42.91
20009;BME280;10165;42.662;23.260;2023-04-24T08:39:43;93744.22;;;17.14;43.57
20009;BME280;10165;42.662;23.260;2023-04-24T08:42:11;93736.84;;;17.26;43.66
20009;BME280;10165;42.662;23.260;2023-04-24T08:44:39;93736.03;;;17.29;43.43
20009;BME280;10165;42.662;23.260;2023-04-24T08:47:07;93734.44;;;17.38;43.47
20009;BME280;10165;42.662;23.260;2023-04-24T08:49:36;93730.53;;;17.46;43.17
20009;BME280;10165;42.662;23.260;2023-04-24T08:52:04;93732.53;;;17.39;43.07
20009;BME280;10165;42.662;23.260;2023-04-24T08:54:34;93722.59;;;17.21;44.10
20009;BME280;10165;42.662;23.260;2023-04-24T08:57:02;93726.25;;;17.52;42.59
20009;BME280;10165;42.662;23.260;2023-04-24T08:59:30;93731.97;;;17.65;42.12
20009;BME280;10165;42.662;23.260;2023-04-24T09:01:58;93715.94;;;18.29;42.02
20009;BME280;10165;42.662;23.260;2023-04-24T09:04:25;93709.25;;;18.03;42.58
20009;BME280;10165;42.662;23.260;2023-04-24T09:06:55;93702.66;;;17.63;43.04
20009;BME280;10165;42.662;23.260;2023-04-24T09:09:24;93703.72;;;17.77;43.46
20009;BME280;10165;42.662;23.260;2023-04-24T09:11:52;93699.59;;;18.40;41.42
20009;BME280;10165;42.662;23.260;2023-04-24T09:14:21;93690.91;;;18.63;41.64
20009;BME280;10165;42.662;23.260;2023-04-24T09:16:50;93701.16;;;18.75;40.18
20009;BME280;10165;42.662;23.260;2023-04-24T09:19:17;93686.72;;;19.15;41.23
20009;BME280;10165;42.662;23.260;2023-04-24T09:21:46;93679.88;;;18.77;40.15
20009;BME280;10165;42.662;23.260;2023-04-24T09:24:17;93684.75;;;18.89;40.59
20009;BME280;10165;42.662;23.260;2023-04-24T09:26:44;93678.81;;;19.28;40.83
20009;BME280;10165;42.662;23.260;2023-04-24T09:29:18;93680.84;;;19.20;39.01
20009;BME280;10165;42.662;23.260;2023-04-24T09:31:45;93685.69;;;19.05;40.09
20009;BME280;10165;42.662;23.260;2023-04-24T09:34:12;93687.09;;;18.56;40.40
20009;BME280;10165;42.662;23.260;2023-04-24T09:36:42;93678.56;;;18.24;41.01
20009;BME280;10165;42.662;23.260;2023-04-24T09:39:13;93680.75;;;18.70;39.95
20009;BME280;10165;42.662;23.260;2023-04-24T09:41:50;93672.88;;;18.79;38.77
20009;BME280;10165;42.662;23.260;2023-04-24T09:44:19;93675.34;;;18.70;39.79
20009;BME280;10165;42.662;23.260;2023-04-24T09:46:54;93674.97;;;18.34;40.44
20009;BME280;10165;42.662;23.260;2023-04-24T09:49:28;93663.78;;;19.23;39.17
20009;BME280;10165;42.662;23.260;2023-04-24T09:52:06;93664.09;;;18.72;40.71
20009;BME280;10165;42.662;23.260;2023-04-24T09:54:33;93661.91;;;18.93;39.91
20009;BME280;10165;42.662;23.260;2023-04-24T09:57:00;93655.84;;;19.36;39.34
20009;BME280;10165;42.662;23.260;2023-04-24T09:59:29;93661.88;;;19.74;38.84
20009;BME280;10165;42.662;23.260;2023-04-24T10:01:56;93658.56;;;20.05;37.83
20009;BME280;10165;42.662;23.260;2023-04-24T10:04:27;93646.41;;;19.71;37.89
20009;BME280;10165;42.662;23.260;2023-04-24T10:06:55;93655.53;;;20.03;37.34
20009;BME280;10165;42.662;23.260;2023-04-24T10:09:24;93647.41;;;20.03;37.97
20009;BME280;10165;42.662;23.260;2023-04-24T10:11:53;93631.31;;;19.93;37.54
20009;BME280;10165;42.662;23.260;2023-04-24T10:14:22;93623.00;;;20.23;37.14
20009;BME280;10165;42.662;23.260;2023-04-24T10:16:53;93623.59;;;20.34;36.59
20009;BME280;10165;42.662;23.260;2023-04-24T10:19:20;93615.56;;;21.03;35.64
20009;BME280;10165;42.662;23.260;2023-04-24T10:21:47;93619.34;;;21.25;35.90
20009;BME280;10165;42.662;23.260;2023-04-24T10:24:15;93607.66;;;20.92;34.00
20009;BME280;10165;42.662;23.260;2023-04-24T10:26:44;93621.91;;;20.96;34.05
20009;BME280;10165;42.662;23.260;2023-04-24T10:29:12;93619.47;;;19.83;35.09
20009;BME280;10165;42.662;23.260;2023-04-24T10:31:39;93603.59;;;20.05;34.51
20009;BME280;10165;42.662;23.260;2023-04-24T10:34:08;93605.84;;;20.30;34.44
20009;BME280;10165;42.662;23.260;2023-04-24T10:36:39;93601.94;;;20.86;34.31
20009;BME280;10165;42.662;23.260;2023-04-24T10:39:09;93595.72;;;21.54;32.25
20009;BME280;10165;42.662;23.260;2023-04-24T10:41:38;93597.06;;;21.95;32.27
20009;BME280;10165;42.662;23.260;2023-04-24T10:44:11;93591.03;;;21.87;31.25
20009;BME280;10165;42.662;23.260;2023-04-24T10:46:42;93579.19;;;22.10;31.77
20009;BME280;10165;42.662;23.260;2023-04-24T10:49:09;93584.28;;;21.46;33.54
20009;BME280;10165;42.662;23.260;2023-04-24T10:54:36;93590.72;;;21.20;31.77
20009;BME280;10165;42.662;23.260;2023-04-24T10:59:45;93582.97;;;21.03;32.61
20009;BME280;10165;42.662;23.260;2023-04-24T11:02:16;93582.25;;;21.18;32.98
20009;BME280;10165;42.662;23.260;2023-04-24T11:04:44;93584.00;;;20.92;32.75
20009;BME280;10165;42.662;23.260;2023-04-24T11:07:12;93586.47;;;21.03;32.65
20009;BME280;10165;42.662;23.260;2023-04-24T11:09:41;93585.25;;;20.52;33.58
20009;BME280;10165;42.662;23.260;2023-04-24T11:12:11;93603.97;;;20.82;33.78
20009;BME280;10165;42.662;23.260;2023-04-24T11:15:13;93642.59;;;19.41;39.66
20009;BME280;10165;42.662;23.260;2023-04-24T11:17:43;93653.16;;;18.14;46.46
20009;BME280;10165;42.662;23.260;2023-04-24T11:20:11;93657.19;;;18.67;49.77
20009;BME280;10165;42.662;23.260;2023-04-24T11:22:54;93641.53;;;19.12;48.82
20009;BME280;10165;42.662;23.260;2023-04-24T11:25:22;93632.50;;;19.45;48.53
20009;BME280;10165;42.662;23.260;2023-04-24T11:27:49;93641.41;;;19.19;49.51
20009;BME280;10165;42.662;23.260;2023-04-24T11:30:20;93644.22;;;19.12;47.71
20009;BME280;10165;42.662;23.260;2023-04-24T11:32:48;93645.16;;;18.04;48.97
20009;BME280;10165;42.662;23.260;2023-04-24T11:35:18;93651.91;;;17.85;53.58
20009;BME280;10165;42.662;23.260;2023-04-24T11:37:49;93629.03;;;17.97;56.20
20009;BME280;10165;42.662;23.260;2023-04-24T11:40:36;93622.56;;;18.21;57.24
20009;BME280;10165;42.662;23.260;2023-04-24T11:43:06;93601.22;;;18.30;58.88
20009;BME280;10165;42.662;23.260;2023-04-24T11:45:33;93598.00;;;18.73;58.08
20009;BME280;10165;42.662;23.260;2023-04-24T11:48:02;93602.84;;;18.58;59.10
20009;BME280;10165;42.662;23.260;2023-04-24T11:50:29;93599.00;;;18.82;60.81
20009;BME280;10165;42.662;23.260;2023-04-24T11:52:56;93600.50;;;19.37;59.79
20009;BME280;10165;42.662;23.260;2023-04-24T11:55:26;93584.19;;;19.87;58.17
20009;BME280;10165;42.662;23.260;2023-04-24T11:57:58;93578.81;;;19.83;51.97
20009;BME280;10165;42.662;23.260;2023-04-24T12:00:27;93574.81;;;18.98;48.33
20009;BME280;10165;42.662;23.260;2023-04-24T12:03:06;93579.19;;;19.16;46.58
20009;BME280;10165;42.662;23.260;2023-04-24T12:05:34;93571.47;;;19.37;45.54
20009;BME280;10165;42.662;23.260;2023-04-24T12:08:01;93570.84;;;19.53;46.58
20009;BME280;10165;42.662;23.260;2023-04-24T12:10:29;93577.09;;;19.50;45.59
20009;BME280;10165;42.662;23.260;2023-04-24T12:12:57;93570.63;;;20.07;45.19
20009;BME280;10165;42.662;23.260;2023-04-24T12:15:25;93559.81;;;20.46;44.51
20009;BME280;10165;42.662;23.260;2023-04-24T12:17:53;93562.66;;;20.19;43.55
20009;BME280;10165;42.662;23.260;2023-04-24T12:20:28;93554.09;;;20.01;45.10
20009;BME280;10165;42.662;23.260;2023-04-24T12:22:57;93544.84;;;20.38;44.38
20009;BME280;10165;42.662;23.260;2023-04-24T12:25:26;93533.72;;;20.13;43.74
20009;BME280;10165;42.662;23.260;2023-04-24T12:28:13;93535.03;;;20.24;43.64
20009;BME280;10165;42.662;23.260;2023-04-24T12:30:45;93537.47;;;20.90;42.68
20009;BME280;10165;42.662;23.260;2023-04-24T12:33:19;93535.84;;;20.93;40.90
20009;BME280;10165;42.662;23.260;2023-04-24T12:35:47;93524.31;;;21.05;41.54
20009;BME280;10165;42.662;23.260;2023-04-24T12:38:15;93515.06;;;20.70;41.30
20009;BME280;10165;42.662;23.260;2023-04-24T12:40:43;93525.19;;;21.02;39.98
20009;BME280;10165;42.662;23.260;2023-04-24T12:43:27;93517.22;;;21.27;38.89
20009;BME280;10165;42.662;23.260;2023-04-24T12:45:54;93510.50;;;20.83;40.02
20009;BME280;10165;42.662;23.260;2023-04-24T12:48:21;93503.97;;;21.45;38.28
20009;BME280;10165;42.662;23.260;2023-04-24T12:50:48;93491.41;;;21.35;38.01
20009;BME280;10165;42.662;23.260;2023-04-24T12:53:15;93490.72;;;20.83;39.44
20009;BME280;10165;42.662;23.260;2023-04-24T12:55:42;93485.97;;;20.87;39.76
20009;BME280;10165;42.662;23.260;2023-04-24T12:58:10;93473.25;;;21.32;39.00
20009;BME280;10165;42.662;23.260;2023-04-24T13:00:38;93474.72;;;20.88;37.35